TimeCDT,TemperatureF,Dew PointF,Humidity,Sea Level PressureIn,VisibilityMPH,Wind Direction,Wind SpeedMPH,Gust SpeedMPH,PrecipitationIn,Events,Conditions,WindDirDegrees,DateUTC
12:54 AM,69.1,62.1,78,29.81,10.0,SE,4.6,-,N/A,,Clear,140,2013-09-10 05:54:00
1:54 AM,68.0,62.1,81,29.84,10.0,North,6.9,-,N/A,,Clear,360,2013-09-10 06:54:00
2:54 AM,66.0,62.1,87,29.86,10.0,Calm,Calm,-,N/A,,Clear,0,2013-09-10 07:54:00
3:54 AM,64.0,62.1,93,29.86,10.0,South,4.6,-,N/A,,Scattered Clouds,180,2013-09-10 08:54:00
4:54 AM,64.9,62.1,90,29.85,10.0,South,3.5,-,N/A,,Scattered Clouds,190,2013-09-10 09:54:00
5:54 AM,64.0,62.1,93,29.86,10.0,SSW,5.8,-,N/A,,Partly Cloudy,210,2013-09-10 10:54:00
6:54 AM,66.0,62.1,87,29.86,10.0,SSE,8.1,-,N/A,,Scattered Clouds,160,2013-09-10 11:54:00
7:54 AM,68.0,63.0,84,29.88,10.0,NW,5.8,-,N/A,,Clear,320,2013-09-10 12:54:00
8:54 AM,73.0,64.0,73,29.89,10.0,Calm,Calm,-,N/A,,Clear,0,2013-09-10 13:54:00
9:54 AM,77.0,64.9,66,29.91,10.0,South,3.5,-,N/A,,Clear,180,2013-09-10 14:54:00
10:54 AM,81.0,64.9,58,29.91,10.0,South,5.8,-,N/A,,Clear,190,2013-09-10 15:54:00
11:54 AM,84.0,64.9,53,29.91,10.0,Calm,Calm,-,N/A,,Clear,0,2013-09-10 16:54:00
12:54 PM,87.1,64.9,48,29.91,10.0,Variable,3.5,-,N/A,,Clear,0,2013-09-10 17:54:00
1:54 PM,89.1,64.9,45,29.92,10.0,NNW,4.6,-,N/A,,Clear,330,2013-09-10 18:54:00
2:54 PM,90.0,64.0,42,29.91,10.0,Calm,Calm,-,N/A,,Clear,0,2013-09-10 19:54:00
3:54 PM,91.0,66.0,44,29.90,10.0,NW,4.6,-,N/A,,Clear,320,2013-09-10 20:54:00
4:54 PM,91.0,68.0,47,29.89,10.0,NNW,6.9,-,N/A,,Clear,340,2013-09-10 21:54:00
5:54 PM,88.0,70.0,55,29.91,10.0,North,10.4,-,N/A,,Clear,360,2013-09-10 22:54:00
6:54 PM,82.9,70.0,65,29.91,10.0,North,10.4,-,N/A,,Clear,360,2013-09-10 23:54:00
7:54 PM,78.1,66.9,68,29.95,10.0,North,6.9,-,N/A,,Clear,10,2013-09-11 00:54:00
8:54 PM,73.9,64.9,73,29.98,10.0,NNW,6.9,-,N/A,,Clear,340,2013-09-11 01:54:00
9:54 PM,72.0,66.0,81,30.00,10.0,NNW,3.5,-,N/A,,Scattered Clouds,340,2013-09-11 02:54:00
10:54 PM,73.0,66.0,79,29.99,10.0,North,5.8,-,N/A,,Partly Cloudy,10,2013-09-11 03:54:00
11:54 PM,71.1,66.9,87,30.01,10.0,SSW,3.5,-,N/A,,Mostly Cloudy,210,2013-09-11 04:54:00